Time;durP1;ratioP1;P1;durP2;ratioP2;P2;SDS_P1;SDS_P2;PMS_P1;PMS_P2;Temp;Humidity;BMP_temperature;BMP_pressure;BME280_temperature;BME280_humidity;BME280_pressure;Samples;Min_cycle;Max_cycle;Signal;HPM_P1;HPM_P2
2022/04/29 00:06:48;;;;;;;25.00;9.15;;;;;;;9.29;53.45;101508.26;709144;1182;114434;-75
2022/04/29 00:21:51;;;;;;;26.90;9.65;;;;;;;9.06;54.08;101509.72;708968;1184;115461;-75
2022/04/29 00:36:55;;;;;;;46.15;9.85;;;;;;;8.91;54.49;101508.90;709032;1184;115572;-76
2022/04/29 00:51:58;;;;;;;38.25;13.95;;;;;;;8.94;56.77;101504.30;708945;1182;115310;-76
2022/04/29 01:07:03;;;;;;;27.55;11.55;;;;;;;8.85;56.13;101498.80;709305;1182;115811;-76
2022/04/29 01:22:07;;;;;;;35.10;13.70;;;;;;;8.66;58.35;101498.14;709045;1182;115320;-75
2022/04/29 01:37:10;;;;;;;29.50;11.00;;;;;;;8.45;57.49;101483.72;709134;1182;115758;-75
2022/04/29 01:52:14;;;;;;;26.10;10.30;;;;;;;8.30;57.44;101478.47;709021;1183;115333;-75
2022/04/29 02:07:18;;;;;;;30.40;11.60;;;;;;;8.30;58.88;101469.77;708975;1181;115690;-75
2022/04/29 02:22:21;;;;;;;28.23;10.23;;;;;;;8.44;59.94;101475.02;709324;1182;115737;-75
2022/04/29 02:37:27;;;;;;;25.63;11.37;;;;;;;8.34;60.86;101466.07;709136;1184;115433;-75
2022/04/29 02:52:30;;;;;;;23.15;10.00;;;;;;;8.27;60.68;101452.49;709101;1182;115596;-76
2022/04/29 03:07:34;;;;;;;19.60;10.00;;;;;;;8.16;61.61;101453.14;709019;1183;115698;-74
2022/04/29 03:22:37;;;;;;;25.25;11.20;;;;;;;8.08;62.22;101457.98;708997;1183;114555;-76
2022/04/29 03:37:41;;;;;;;28.97;12.37;;;;;;;8.01;63.02;101456.68;709163;1184;114242;-75
2022/04/29 03:52:47;;;;;;;22.20;9.25;;;;;;;8.09;62.38;101454.45;709240;1182;114901;-75
2022/04/29 04:07:51;;;;;;;22.00;9.95;;;;;;;8.32;63.25;101465.30;709108;1182;115328;-75
2022/04/29 04:22:55;;;;;;;50.60;17.50;;;;;;;8.49;63.75;101464.33;709265;1183;114683;-76
2022/04/29 04:37:58;;;;;;;43.93;18.17;;;;;;;8.77;63.61;101476.55;709476;1181;115180;-76
2022/04/29 04:53:02;;;;;;;45.40;18.10;;;;;;;9.02;62.92;101464.56;709836;1184;115243;-75
2022/04/29 05:08:05;;;;;;;72.27;26.63;;;;;;;9.32;63.42;101487.13;709293;1183;115437;-83
2022/04/29 05:23:09;;;;;;;94.77;34.60;;;;;;;9.86;63.14;101485.42;709526;1182;116248;-75
2022/04/29 05:38:12;;;;;;;62.60;26.40;;;;;;;10.40;62.66;101503.69;709919;1182;115555;-88
2022/04/29 05:53:16;;;;;;;61.90;25.00;;;;;;;11.01;61.23;101500.38;710655;1184;115140;-83
2022/04/29 06:08:20;;;;;;;45.60;19.20;;;;;;;11.78;60.00;101491.36;709918;1182;114566;-78
2022/04/29 06:23:23;;;;;;;22.33;9.90;;;;;;;12.48;57.37;101503.66;709922;1184;114408;-82
2022/04/29 06:38:28;;;;;;;16.07;8.20;;;;;;;13.53;54.08;101520.13;709742;1184;115230;-82
2022/04/29 06:53:31;;;;;;;6.35;3.00;;;;;;;14.51;51.71;101515.55;710435;1184;115025;-78
2022/04/29 07:08:35;;;;;;;5.80;3.30;;;;;;;15.52;50.01;101520.89;710183;1183;115595;-84
2022/04/29 07:23:39;;;;;;;5.55;3.30;;;;;;;16.25;48.71;101529.25;709793;1182;115296;-78
2022/04/29 07:54:07;;;;;;;16.10;7.20;;;;;;;18.73;47.37;101532.61;710084;1182;114154;-80
2022/04/29 08:09:12;;;;;;;4.73;2.70;;;;;;;19.37;46.63;101528.71;710433;1183;114393;-80
2022/04/29 08:24:16;;;;;;;3.60;1.97;;;;;;;19.37;44.89;101523.39;710176;1184;114141;-79
2022/04/29 08:39:20;;;;;;;5.03;1.78;;;;;;;19.00;43.56;101527.27;710679;1183;114204;-79
2022/04/29 09:10:08;;;;;;;4.30;3.10;;;;;;;20.09;43.09;101507.64;709828;1182;114224;-80
2022/04/29 09:25:13;;;;;;;5.80;3.80;;;;;;;20.17;43.11;101509.47;710168;1183;115849;-80
2022/04/29 09:40:17;;;;;;;2.60;1.70;;;;;;;20.31;41.30;101504.44;710475;1183;114513;-81
2022/04/29 09:55:21;;;;;;;6.03;3.30;;;;;;;20.95;41.06;101493.75;710341;1183;114149;-80
2022/04/29 10:10:30;;;;;;;6.15;2.20;;;;;;;22.46;40.73;101483.38;710342;1183;114222;-78
2022/04/29 10:25:39;;;;;;;4.23;1.90;;;;;;;22.54;39.22;101475.28;710178;1183;114116;-75
2022/04/29 10:40:44;;;;;;;3.68;1.60;;;;;;;23.28;39.28;101464.59;709594;1184;114899;-75
2022/04/29 10:55:48;;;;;;;1.80;1.30;;;;;;;23.27;38.25;101461.11;709142;1183;114856;-74
2022/04/29 11:11:01;;;;;;;1.80;1.30;;;;;;;23.47;38.24;101453.25;710521;1181;114083;-74
2022/04/29 11:26:05;;;;;;;1.95;1.15;;;;;;;24.32;38.06;101452.42;716081;1182;115344;-73
2022/04/29 11:41:20;;;;;;;1.70;1.05;;;;;;;24.18;36.93;101443.50;709758;1182;115623;-72
2022/04/29 11:56:33;;;;;;;6.80;2.70;;;;;;;23.87;37.70;101433.98;709612;1182;115007;-75
2022/04/29 12:11:38;;;;;;;2.13;1.00;;;;;;;24.18;35.90;101424.73;709979;1184;115226;-75
2022/04/29 12:27:04;;;;;;;2.53;1.50;;;;;;;24.49;36.26;101413.52;709624;1181;115059;-76
2022/04/29 12:42:13;;;;;;;3.80;1.40;;;;;;;23.97;36.32;101402.34;709975;1184;115037;-77
2022/04/29 12:57:17;;;;;;;3.23;1.30;;;;;;;24.26;36.13;101381.67;709802;1183;115382;-76
2022/04/29 13:12:21;;;;;;;3.10;1.30;;;;;;;25.35;35.57;101374.52;709386;1182;115490;-76
2022/04/29 13:27:31;;;;;;;3.25;2.05;;;;;;;25.15;36.01;101371.78;709732;1182;115933;-77
2022/04/29 13:42:38;;;;;;;2.80;1.90;;;;;;;25.55;36.09;101357.54;709920;1184;115902;-73
2022/04/29 13:57:43;;;;;;;3.75;1.95;;;;;;;23.86;36.05;101357.31;709944;1181;115939;-78
2022/04/29 14:12:47;;;;;;;3.50;2.20;;;;;;;26.38;36.61;101339.92;709682;1182;114849;-80
2022/04/29 14:27:51;;;;;;;4.80;1.60;;;;;;;33.14;34.66;101330.71;709537;1183;114174;-81
2022/04/29 14:42:55;;;;;;;3.30;2.10;;;;;;;34.76;31.90;101320.93;711725;1182;115434;-75
2022/04/29 14:58:00;;;;;;;9.95;7.40;;;;;;;26.27;34.21;101317.23;710146;1182;114264;-74
2022/04/29 15:28:26;;;;;;;10.90;4.30;;;;;;;23.40;37.05;101300.59;709183;1183;114236;-75
2022/04/29 15:43:30;;;;;;;14.35;7.35;;;;;;;22.34;38.87;101287.86;709431;1184;115493;-75
2022/04/29 15:58:35;;;;;;;14.90;10.70;;;;;;;21.83;38.98;101301.22;710018;1184;115997;-76
2022/04/29 16:13:46;;;;;;;12.65;5.60;;;;;;;21.38;38.83;101296.68;709765;1182;116153;-77
2022/04/29 16:28:51;;;;;;;85.90;30.50;;;;;;;20.93;39.47;101301.92;710554;1184;115713;-76
2022/04/29 16:43:54;;;;;;;31.38;14.58;;;;;;;20.44;40.40;101300.40;709758;1182;115835;-76
2022/04/29 16:59:01;;;;;;;70.63;29.73;;;;;;;19.88;41.11;101312.98;709661;1182;115708;-73
2022/04/29 17:14:07;;;;;;;127.58;60.65;;;;;;;19.28;42.18;101312.39;709394;1184;115714;-78
2022/04/29 17:29:11;;;;;;;63.75;24.43;;;;;;;18.42;42.35;101317.95;709729;1182;114754;-76
2022/04/29 17:44:14;;;;;;;41.60;15.50;;;;;;;17.83;43.22;101324.95;710011;1184;115860;-76
2022/04/29 17:59:38;;;;;;;28.40;11.40;;;;;;;17.17;43.79;101343.07;709621;1184;115191;-76
2022/04/29 18:14:42;;;;;;;50.20;22.45;;;;;;;16.51;44.39;101359.14;709553;1182;114798;-77
2022/04/29 18:29:48;;;;;;;41.15;16.25;;;;;;;15.93;45.20;101382.23;709462;1184;115565;-77
2022/04/29 18:44:51;;;;;;;118.30;42.70;;;;;;;15.34;46.79;101393.84;709364;1182;115144;-77
2022/04/29 18:59:55;;;;;;;59.00;21.30;;;;;;;14.87;47.19;101410.34;709493;1182;114772;-77
2022/04/29 19:15:06;;;;;;;45.50;18.97;;;;;;;14.32;48.39;101400.98;709833;1183;116317;-74
2022/04/29 19:30:12;;;;;;;99.60;44.40;;;;;;;13.91;49.14;101408.82;711034;1184;116115;-73
2022/04/29 19:45:17;;;;;;;112.40;47.25;;;;;;;13.36;49.45;101414.25;709076;1184;115202;-74
2022/04/29 20:00:21;;;;;;;256.50;72.70;;;;;;;12.97;49.93;101419.12;709427;1182;114661;-75
2022/04/29 20:15:25;;;;;;;123.50;40.20;;;;;;;12.68;50.84;101418.81;709350;1184;116034;-75
2022/04/29 20:30:29;;;;;;;349.95;75.45;;;;;;;12.38;51.49;101425.52;709832;1182;115087;-73
2022/04/29 20:45:33;;;;;;;146.30;47.60;;;;;;;12.14;52.64;101435.20;709515;1184;115813;-74
2022/04/29 21:00:37;;;;;;;50.90;19.40;;;;;;;11.75;53.26;101431.14;709875;1182;115858;-74
2022/04/29 21:15:44;;;;;;;36.30;12.40;;;;;;;11.65;53.44;101426.56;710411;1183;115413;-87
2022/04/29 21:30:57;;;;;;;26.00;9.60;;;;;;;11.54;53.53;101417.80;711150;1183;114780;-87
2022/04/29 21:46:01;;;;;;;25.70;9.20;;;;;;;11.22;54.22;101431.52;711482;1184;115439;-74
2022/04/29 22:01:09;;;;;;;18.55;9.00;;;;;;;10.92;54.70;101433.59;710460;1182;115776;-73
2022/04/29 22:16:15;;;;;;;23.75;9.25;;;;;;;10.59;55.43;101429.78;710172;1183;115638;-75
2022/04/29 22:31:19;;;;;;;28.60;11.80;;;;;;;10.32;55.45;101432.53;709381;1183;115703;-74
2022/04/29 22:46:23;;;;;;;16.30;6.70;;;;;;;9.95;57.00;101417.51;709781;1182;115581;-74
2022/04/29 23:01:27;;;;;;;19.00;7.45;;;;;;;9.38;56.99;101418.63;709959;1182;115420;-73
2022/04/29 23:16:30;;;;;;;12.80;5.55;;;;;;;9.06;58.44;101421.55;709368;1182;114996;-73
2022/04/29 23:31:38;;;;;;;16.40;7.40;;;;;;;8.87;58.97;101411.42;709677;1184;114699;-73
2022/04/29 23:46:42;;;;;;;15.90;6.15;;;;;;;8.71;59.86;101402.83;709549;1182;115384;-72
